Time;durP1;ratioP1;P1;durP2;ratioP2;P2;SDS_P1;SDS_P2;PMS_P1;PMS_P2;Temp;Humidity;BMP_temperature;BMP_pressure;BME280_temperature;BME280_humidity;BME280_pressure;Samples;Min_cycle;Max_cycle;Signal;HPM_P1;HPM_P2
2022/02/18 00:00:50;;;;;;;26.02;5.05;;;9.00;99.90;;;;;;4994603;28;20069;-50
2022/02/18 00:03:15;;;;;;;29.85;4.85;;;9.00;99.90;;;;;;4994739;28;20044;-47
2022/02/18 00:05:43;;;;;;;33.58;5.72;;;9.00;99.90;;;;;;4994484;28;20029;-48
2022/02/18 00:08:08;;;;;;;31.15;6.35;;;9.00;99.90;;;;;;4993584;28;20441;-46
2022/02/18 00:10:34;;;;;;;31.77;5.93;;;9.00;99.90;;;;;;4994557;28;20049;-48
2022/02/18 00:13:00;;;;;;;46.45;7.15;;;9.00;99.90;;;;;;4993802;28;20034;-46
2022/02/18 00:15:26;;;;;;;24.15;5.68;;;9.00;99.90;;;;;;4994462;28;20023;-51
2022/02/18 00:17:52;;;;;;;32.65;7.05;;;8.90;99.90;;;;;;4994639;28;20045;-49
2022/02/18 00:20:17;;;;;;;24.35;5.85;;;8.90;99.90;;;;;;4994988;28;20109;-46
2022/02/18 00:22:43;;;;;;;33.13;6.85;;;9.00;99.90;;;;;;4994540;28;20018;-44
2022/02/18 00:25:10;;;;;;;31.35;6.82;;;8.90;99.90;;;;;;4994206;28;20112;-48
2022/02/18 00:27:36;;;;;;;34.78;5.47;;;9.00;99.90;;;;;;4994079;28;20036;-49
2022/02/18 00:30:04;;;;;;;36.42;6.55;;;8.90;99.90;;;;;;4994370;28;20490;-48
2022/02/18 00:32:30;;;;;;;36.13;5.07;;;8.90;99.90;;;;;;4994557;28;20037;-50
2022/02/18 00:34:55;;;;;;;47.83;6.00;;;8.90;99.90;;;;;;4993958;28;20033;-47
2022/02/18 00:37:21;;;;;;;32.53;5.97;;;8.90;99.90;;;;;;4995047;28;20061;-47
2022/02/18 00:39:46;;;;;;;32.63;7.85;;;8.80;99.90;;;;;;4993089;28;20022;-50
2022/02/18 00:42:12;;;;;;;22.08;5.40;;;8.90;99.90;;;;;;4993876;28;20034;-49
2022/02/18 00:44:38;;;;;;;21.17;5.85;;;8.80;99.90;;;;;;4993704;28;20030;-49
2022/02/18 00:47:05;;;;;;;25.50;5.55;;;8.80;99.90;;;;;;4994047;28;20026;-49
2022/02/18 00:49:30;;;;;;;27.25;5.45;;;8.80;99.90;;;;;;4994505;28;20026;-49
2022/02/18 00:51:56;;;;;;;24.92;4.90;;;8.80;99.90;;;;;;4993928;28;20038;-48
2022/02/18 00:54:22;;;;;;;32.95;7.38;;;8.80;99.90;;;;;;4992200;28;20490;-47
2022/02/18 00:56:50;;;;;;;29.10;6.05;;;8.80;99.90;;;;;;4993518;28;20458;-49
2022/02/18 00:59:16;;;;;;;35.03;7.63;;;8.70;99.90;;;;;;4994534;28;20022;-52
2022/02/18 01:01:42;;;;;;;35.53;6.40;;;8.70;99.90;;;;;;4993973;28;20032;-48
2022/02/18 01:04:07;;;;;;;23.08;5.40;;;8.70;99.90;;;;;;4993316;28;20018;-47
2022/02/18 01:06:34;;;;;;;31.85;7.07;;;8.70;99.90;;;;;;4993762;28;20165;-46
2022/02/18 01:08:59;;;;;;;30.63;5.35;;;8.70;99.90;;;;;;4993883;28;20453;-49
2022/02/18 01:11:25;;;;;;;27.85;6.38;;;8.80;99.90;;;;;;4993746;28;20018;-51
2022/02/18 01:13:51;;;;;;;32.13;6.55;;;8.80;99.90;;;;;;4992407;28;20057;-45
2022/02/18 01:16:16;;;;;;;35.97;6.68;;;8.70;99.90;;;;;;4992551;28;20022;-49
2022/02/18 01:18:42;;;;;;;38.60;6.63;;;8.70;99.90;;;;;;4993596;28;20066;-52
2022/02/18 01:21:08;;;;;;;32.80;6.50;;;8.70;99.90;;;;;;4993674;28;20145;-49
2022/02/18 01:23:35;;;;;;;28.85;5.05;;;8.80;99.90;;;;;;4993286;28;20029;-48
2022/02/18 01:26:01;;;;;;;26.00;7.57;;;8.90;99.90;;;;;;4993408;28;20109;-48
2022/02/18 01:28:26;;;;;;;24.13;6.53;;;8.90;99.90;;;;;;4993596;28;20033;-48
2022/02/18 01:30:52;;;;;;;20.60;5.35;;;9.00;99.90;;;;;;4993603;28;20030;-50
2022/02/18 01:33:17;;;;;;;41.80;6.43;;;9.00;99.90;;;;;;4992203;28;20038;-50
2022/02/18 01:35:43;;;;;;;28.35;5.43;;;9.10;99.90;;;;;;4993438;28;20085;-48
2022/02/18 01:38:08;;;;;;;37.25;5.35;;;9.10;99.90;;;;;;4993901;28;20053;-47
2022/02/18 01:40:34;;;;;;;28.92;5.60;;;9.00;99.90;;;;;;4993599;28;20029;-46
2022/02/18 01:43:00;;;;;;;34.17;6.05;;;9.10;99.90;;;;;;4991853;28;20426;-51
2022/02/18 01:45:26;;;;;;;39.55;7.78;;;9.00;99.90;;;;;;4993471;28;20026;-50
2022/02/18 01:47:52;;;;;;;27.13;5.13;;;9.00;99.90;;;;;;4993628;28;20063;-49
2022/02/18 01:50:18;;;;;;;37.42;6.38;;;9.00;99.90;;;;;;4994348;28;20147;-49
2022/02/18 01:52:47;;;;;;;26.08;5.47;;;8.90;99.90;;;;;;4995814;28;20022;-47
2022/02/18 01:55:14;;;;;;;28.05;5.32;;;8.80;99.90;;;;;;4996663;28;20030;-46
2022/02/18 01:58:02;;;;;;;18.85;4.72;;;8.90;99.90;;;;;;4996523;28;20442;-52
2022/02/18 02:00:30;;;;;;;26.65;5.05;;;8.90;99.90;;;;;;4996924;28;20022;-50
2022/02/18 02:02:57;;;;;;;37.78;8.23;;;8.90;99.90;;;;;;4996777;28;20077;-49
2022/02/18 02:05:23;;;;;;;26.20;5.63;;;8.90;99.90;;;;;;4997328;28;20478;-47
2022/02/18 02:07:50;;;;;;;31.48;6.28;;;8.90;99.90;;;;;;4995822;28;20076;-49
2022/02/18 02:10:17;;;;;;;27.13;7.30;;;8.90;99.90;;;;;;4997059;28;20115;-49
2022/02/18 02:12:51;;;;;;;35.00;6.10;;;8.80;99.90;;;;;;4996696;28;20145;-52
2022/02/18 02:15:19;;;;;;;28.30;5.40;;;8.90;99.90;;;;;;4997477;28;20138;-49
2022/02/18 02:17:45;;;;;;;24.15;5.65;;;9.00;99.90;;;;;;4997252;28;20038;-52
2022/02/18 02:20:11;;;;;;;24.45;4.90;;;9.10;99.90;;;;;;4996789;28;20022;-50
2022/02/18 02:22:38;;;;;;;21.70;5.90;;;9.10;99.90;;;;;;4997078;28;20114;-50
2022/02/18 02:25:04;;;;;;;31.08;6.70;;;9.20;99.90;;;;;;4996929;28;20022;-50
2022/02/18 02:27:30;;;;;;;21.08;5.32;;;9.20;99.90;;;;;;4995515;28;20410;-46
2022/02/18 02:29:56;;;;;;;29.08;5.25;;;9.20;99.90;;;;;;4996884;28;20037;-47
2022/02/18 02:32:22;;;;;;;35.33;6.70;;;9.20;99.90;;;;;;4996616;28;20638;-47
2022/02/18 02:34:47;;;;;;;28.33;5.93;;;9.20;99.90;;;;;;4996237;28;20034;-49
2022/02/18 02:37:13;;;;;;;36.90;6.63;;;9.20;99.90;;;;;;4996472;28;20030;-47
2022/02/18 02:39:38;;;;;;;30.77;6.60;;;9.20;99.90;;;;;;4996731;28;20549;-50
2022/02/18 02:42:06;;;;;;;31.58;7.05;;;9.20;99.90;;;;;;4996170;28;20019;-48
2022/02/18 02:44:32;;;;;;;38.55;7.40;;;9.20;99.90;;;;;;4996183;28;20022;-47
2022/02/18 02:46:57;;;;;;;21.63;5.25;;;9.10;99.90;;;;;;4995270;28;20045;-46
2022/02/18 02:49:23;;;;;;;22.88;5.53;;;9.00;99.90;;;;;;4996235;28;20548;-48
2022/02/18 02:51:49;;;;;;;21.77;5.07;;;9.00;99.90;;;;;;4996529;28;20082;-47
2022/02/18 02:54:16;;;;;;;29.58;5.60;;;9.00;99.90;;;;;;4995720;28;20065;-48
2022/02/18 02:56:42;;;;;;;33.55;6.30;;;9.00;99.90;;;;;;4996286;28;20034;-51
2022/02/18 02:59:07;;;;;;;22.17;6.50;;;8.90;99.90;;;;;;4996598;28;20106;-47
2022/02/18 03:01:33;;;;;;;32.00;5.60;;;8.80;99.90;;;;;;4995641;28;20502;-53
2022/02/18 03:03:59;;;;;;;24.60;5.50;;;8.80;99.90;;;;;;4995975;28;20023;-46
2022/02/18 03:06:24;;;;;;;31.27;5.30;;;8.70;99.90;;;;;;4996436;28;20026;-47
2022/02/18 03:08:50;;;;;;;27.58;6.18;;;8.70;99.90;;;;;;4996244;28;20030;-46
2022/02/18 03:11:16;;;;;;;33.33;7.07;;;8.70;99.90;;;;;;4996247;28;20030;-50
2022/02/18 03:13:46;;;;;;;26.00;5.65;;;8.60;99.90;;;;;;4995934;28;20037;-46
2022/02/18 03:16:13;;;;;;;22.77;5.10;;;8.60;99.90;;;;;;4996132;28;20023;-46
2022/02/18 03:18:39;;;;;;;26.98;5.25;;;8.70;99.90;;;;;;4994946;28;20057;-47
2022/02/18 03:21:05;;;;;;;32.67;6.65;;;8.70;99.90;;;;;;4996277;28;20022;-49
2022/02/18 03:23:31;;;;;;;17.17;4.25;;;8.60;99.90;;;;;;4995809;28;20022;-46
2022/02/18 03:25:56;;;;;;;32.30;4.80;;;8.70;99.90;;;;;;4996175;28;20474;-48
2022/02/18 03:28:22;;;;;;;22.40;4.32;;;8.70;99.90;;;;;;4996395;28;20097;-49
2022/02/18 03:30:48;;;;;;;32.85;5.72;;;8.70;99.90;;;;;;4996452;28;20022;-49
2022/02/18 03:33:14;;;;;;;27.42;6.15;;;8.60;99.90;;;;;;4994911;28;20026;-47
2022/02/18 03:35:41;;;;;;;28.88;7.10;;;8.60;99.90;;;;;;4994794;28;20044;-46
2022/02/18 03:38:07;;;;;;;28.92;5.50;;;8.60;99.90;;;;;;4994743;28;20030;-46
2022/02/18 03:40:33;;;;;;;26.27;6.15;;;8.60;99.90;;;;;;4994951;28;20068;-46
2022/02/18 03:42:59;;;;;;;29.13;5.57;;;8.50;99.90;;;;;;4994664;28;20081;-49
2022/02/18 03:45:26;;;;;;;24.88;4.80;;;8.50;99.90;;;;;;4994948;28;20109;-46
2022/02/18 03:47:52;;;;;;;32.05;5.72;;;8.60;99.90;;;;;;4994484;28;20030;-51
2022/02/18 03:50:17;;;;;;;30.58;5.70;;;8.60;99.90;;;;;;4993524;28;20030;-48
2022/02/18 03:52:43;;;;;;;29.40;6.32;;;8.60;99.90;;;;;;4994458;28;20027;-44
2022/02/18 03:55:08;;;;;;;34.30;6.30;;;8.60;99.90;;;;;;4994377;28;20042;-51
2022/02/18 03:57:34;;;;;;;26.83;5.07;;;8.60;99.90;;;;;;4994047;28;20030;-50
2022/02/18 03:59:59;;;;;;;32.75;5.55;;;8.60;99.90;;;;;;4993663;28;20018;-48
2022/02/18 04:02:25;;;;;;;25.85;4.95;;;8.60;99.90;;;;;;4994740;28;20089;-48
2022/02/18 04:04:50;;;;;;;26.13;6.03;;;8.70;99.90;;;;;;4994234;28;20039;-47
2022/02/18 04:07:16;;;;;;;28.17;5.63;;;8.70;99.90;;;;;;4995037;28;20030;-48
2022/02/18 04:09:41;;;;;;;31.35;6.53;;;8.70;99.90;;;;;;4995580;28;20030;-49
2022/02/18 04:12:08;;;;;;;22.35;5.13;;;8.80;99.90;;;;;;4995116;28;20031;-49
2022/02/18 04:14:33;;;;;;;33.00;6.93;;;8.80;99.90;;;;;;4994018;28;20435;-50
2022/02/18 04:16:59;;;;;;;34.22;5.72;;;8.70;99.90;;;;;;4994564;28;20157;-50
2022/02/18 04:19:24;;;;;;;25.67;6.53;;;8.80;99.90;;;;;;4994231;28;20030;-49
2022/02/18 04:21:50;;;;;;;35.85;6.55;;;8.80;99.90;;;;;;4994458;28;20034;-50
2022/02/18 04:24:16;;;;;;;29.85;5.35;;;8.70;99.90;;;;;;4994214;28;20027;-48
2022/02/18 04:26:41;;;;;;;24.52;5.25;;;8.70;99.90;;;;;;4992765;28;20435;-49
2022/02/18 04:29:07;;;;;;;35.75;8.27;;;8.70;99.90;;;;;;4994388;28;20026;-46
2022/02/18 04:31:33;;;;;;;30.95;5.78;;;8.70;99.90;;;;;;4994660;28;20059;-45
2022/02/18 04:33:58;;;;;;;25.52;5.88;;;8.60;99.90;;;;;;4994059;28;20027;-48
2022/02/18 04:36:24;;;;;;;24.63;5.38;;;8.60;99.90;;;;;;4993996;28;20450;-47
2022/02/18 04:38:50;;;;;;;36.22;5.57;;;8.60;99.90;;;;;;4993951;28;20117;-49
2022/02/18 04:41:16;;;;;;;31.27;6.45;;;8.60;99.90;;;;;;4993612;28;20515;-46
2022/02/18 04:43:41;;;;;;;27.70;5.32;;;8.60;99.90;;;;;;4993262;28;20105;-49
2022/02/18 04:46:07;;;;;;;20.30;5.25;;;8.60;99.90;;;;;;4993451;28;20027;-47
2022/02/18 04:48:33;;;;;;;25.98;5.15;;;8.60;99.90;;;;;;4993581;28;20109;-49
2022/02/18 04:50:59;;;;;;;30.83;6.07;;;8.60;99.90;;;;;;4992396;28;20064;-51
2022/02/18 04:53:24;;;;;;;27.27;5.22;;;8.70;99.90;;;;;;4993521;28;20026;-50
2022/02/18 04:55:50;;;;;;;33.95;6.20;;;8.60;99.90;;;;;;4991821;28;20026;-45
2022/02/18 04:58:15;;;;;;;23.58;5.75;;;8.70;99.90;;;;;;4993715;28;20049;-46
2022/02/18 05:00:41;;;;;;;29.73;5.90;;;8.70;99.90;;;;;;4993940;28;20034;-49
2022/02/18 05:03:06;;;;;;;23.75;5.43;;;8.70;99.90;;;;;;4993360;28;20109;-50
2022/02/18 05:05:32;;;;;;;31.15;5.30;;;8.60;99.90;;;;;;4992612;28;20025;-47
2022/02/18 05:07:57;;;;;;;31.42;5.00;;;8.60;99.90;;;;;;4993522;28;20034;-48
2022/02/18 05:10:23;;;;;;;25.15;4.63;;;8.60;99.90;;;;;;4993505;28;20034;-49
2022/02/18 05:12:48;;;;;;;25.20;5.00;;;8.60;99.90;;;;;;4993002;28;20030;-50
2022/02/18 05:15:14;;;;;;;20.50;6.18;;;8.70;99.90;;;;;;4993519;28;20082;-48
2022/02/18 05:17:39;;;;;;;37.50;7.28;;;8.70;99.90;;;;;;4992930;28;20475;-49
2022/02/18 05:20:05;;;;;;;22.30;5.53;;;8.80;99.90;;;;;;4993745;28;20282;-49
2022/02/18 05:22:31;;;;;;;27.13;6.00;;;8.90;99.90;;;;;;4993383;28;20463;-48
2022/02/18 05:24:57;;;;;;;22.48;4.82;;;8.90;99.90;;;;;;4994101;28;20054;-51
2022/02/18 05:27:22;;;;;;;17.10;4.18;;;8.90;99.90;;;;;;4999832;28;20030;-50
2022/02/18 05:29:48;;;;;;;32.72;6.47;;;8.90;99.90;;;;;;4999919;28;20414;-50
2022/02/18 05:32:13;;;;;;;19.77;4.78;;;8.80;99.90;;;;;;4999921;28;20032;-49
2022/02/18 05:34:39;;;;;;;31.52;6.18;;;8.80;99.90;;;;;;4999711;28;20038;-51
2022/02/18 05:37:05;;;;;;;25.48;5.38;;;8.90;99.90;;;;;;4998688;28;20038;-51
2022/02/18 05:39:30;;;;;;;35.47;6.47;;;8.90;99.90;;;;;;4999695;28;20034;-48
2022/02/18 05:41:56;;;;;;;28.73;6.85;;;8.90;99.90;;;;;;4999954;28;20015;-48
2022/02/18 05:44:21;;;;;;;31.88;7.25;;;9.00;99.90;;;;;;4999766;28;20398;-50
2022/02/18 05:46:47;;;;;;;18.08;5.35;;;9.10;99.90;;;;;;5000331;28;20397;-51
2022/02/18 05:49:13;;;;;;;25.88;5.45;;;9.00;99.90;;;;;;5000471;28;20023;-48
2022/02/18 05:51:39;;;;;;;24.23;5.57;;;9.10;99.90;;;;;;4999193;28;20113;-48
2022/02/18 05:54:04;;;;;;;31.42;6.18;;;9.20;99.90;;;;;;5000212;28;20061;-47
2022/02/18 05:56:30;;;;;;;22.42;4.90;;;9.10;99.90;;;;;;5000225;28;20030;-47
2022/02/18 05:58:55;;;;;;;19.02;5.05;;;9.10;99.90;;;;;;5000211;28;20038;-46
2022/02/18 06:01:21;;;;;;;23.88;5.28;;;9.10;99.90;;;;;;5000518;28;20073;-48
2022/02/18 06:03:48;;;;;;;32.65;7.80;;;9.10;99.90;;;;;;4999943;28;20029;-47
2022/02/18 06:06:14;;;;;;;31.90;6.15;;;9.10;99.90;;;;;;5000214;28;20022;-46
2022/02/18 06:08:40;;;;;;;25.63;4.97;;;9.10;99.90;;;;;;4999969;28;20030;-49
2022/02/18 06:11:05;;;;;;;25.92;5.28;;;9.10;99.90;;;;;;5000249;28;20031;-46
2022/02/18 06:13:31;;;;;;;27.90;5.63;;;9.10;99.90;;;;;;4999676;28;20029;-49
2022/02/18 06:15:56;;;;;;;22.73;4.85;;;9.00;99.90;;;;;;4999816;28;20030;-47
2022/02/18 06:18:22;;;;;;;22.83;5.13;;;9.00;99.90;;;;;;4999974;28;20029;-48
2022/02/18 06:20:48;;;;;;;23.90;5.88;;;9.00;99.90;;;;;;4999950;28;20022;-48
2022/02/18 06:23:13;;;;;;;18.17;5.13;;;8.90;99.90;;;;;;4999564;28;20097;-48
2022/02/18 06:25:39;;;;;;;25.48;6.43;;;8.80;99.90;;;;;;4999862;28;20073;-47
2022/02/18 06:28:11;;;;;;;30.02;5.88;;;8.80;99.90;;;;;;5000530;28;20034;-48
2022/02/18 06:30:37;;;;;;;26.23;6.53;;;8.80;99.90;;;;;;5000001;28;20034;-48
2022/02/18 06:33:05;;;;;;;29.48;6.22;;;8.80;99.90;;;;;;4999304;28;20035;-47
2022/02/18 06:35:31;;;;;;;22.05;5.07;;;8.80;99.90;;;;;;5000379;28;20050;-46
2022/02/18 06:37:56;;;;;;;25.60;4.95;;;8.70;99.90;;;;;;4997140;28;20482;-50
2022/02/18 06:40:22;;;;;;;22.58;6.50;;;8.70;99.90;;;;;;4996503;28;20406;-47
2022/02/18 06:42:48;;;;;;;25.52;6.18;;;8.80;99.90;;;;;;4996108;28;20426;-47
2022/02/18 06:45:17;;;;;;;30.98;6.28;;;8.80;99.90;;;;;;4996345;28;20073;-47
2022/02/18 06:47:44;;;;;;;24.60;4.97;;;8.80;99.90;;;;;;4996814;28;20030;-51
2022/02/18 06:50:09;;;;;;;35.42;6.30;;;8.70;99.90;;;;;;4996199;28;20066;-47
2022/02/18 06:52:35;;;;;;;24.23;6.65;;;8.80;99.90;;;;;;4996415;28;20050;-47
2022/02/18 06:55:00;;;;;;;26.33;6.22;;;8.70;99.90;;;;;;4995765;28;20030;-50
2022/02/18 06:57:26;;;;;;;29.73;7.72;;;8.70;99.90;;;;;;4995838;28;20371;-49
2022/02/18 06:59:51;;;;;;;22.83;4.72;;;8.80;99.90;;;;;;4996052;28;20014;-46
2022/02/18 07:02:17;;;;;;;21.73;4.70;;;8.80;99.90;;;;;;4995851;28;20022;-48
2022/02/18 07:04:42;;;;;;;19.40;5.28;;;8.80;99.90;;;;;;4995870;28;20033;-47
2022/02/18 07:07:08;;;;;;;21.27;5.13;;;8.90;99.90;;;;;;4995694;28;20117;-47
2022/02/18 07:09:33;;;;;;;26.13;5.30;;;8.90;99.90;;;;;;4995638;28;20486;-46
2022/02/18 07:11:59;;;;;;;23.88;4.88;;;8.90;99.90;;;;;;4996336;28;20521;-51
2022/02/18 07:14:25;;;;;;;27.48;4.80;;;8.90;99.90;;;;;;4996017;28;20398;-48
2022/02/18 07:16:51;;;;;;;26.02;4.80;;;8.90;99.90;;;;;;4995429;28;20026;-47
2022/02/18 07:19:17;;;;;;;24.30;5.55;;;9.00;99.90;;;;;;4995906;28;20022;-46
2022/02/18 07:21:43;;;;;;;21.10;5.13;;;9.00;99.90;;;;;;4996164;28;20390;-47
2022/02/18 07:24:10;;;;;;;19.73;6.03;;;9.00;99.90;;;;;;4995590;28;20486;-46
2022/02/18 07:26:35;;;;;;;23.65;4.40;;;9.10;99.90;;;;;;4995630;28;20028;-47
2022/02/18 07:29:01;;;;;;;14.73;3.70;;;9.10;99.90;;;;;;4995202;28;20026;-45
2022/02/18 07:31:27;;;;;;;33.33;4.72;;;9.10;99.90;;;;;;4995492;28;20093;-47
2022/02/18 07:33:52;;;;;;;18.00;4.03;;;9.20;99.90;;;;;;4995227;28;20447;-52
2022/02/18 07:36:18;;;;;;;27.30;6.30;;;9.20;99.90;;;;;;4995388;28;20418;-47
2022/02/18 07:38:43;;;;;;;19.40;5.22;;;9.20;99.90;;;;;;4995708;28;20034;-48
2022/02/18 07:41:09;;;;;;;22.73;4.40;;;9.20;99.90;;;;;;4995664;28;20031;-47
2022/02/18 07:43:35;;;;;;;24.52;5.60;;;9.30;99.90;;;;;;4993752;28;20019;-48
2022/02/18 07:46:01;;;;;;;26.40;4.40;;;9.30;99.90;;;;;;4995124;28;20030;-50
2022/02/18 07:48:27;;;;;;;19.23;5.30;;;9.30;99.90;;;;;;4994827;28;20072;-46
2022/02/18 07:50:52;;;;;;;19.88;4.32;;;9.30;99.90;;;;;;4995386;28;20480;-49
2022/02/18 07:53:18;;;;;;;17.70;4.13;;;9.40;99.90;;;;;;4993618;28;20049;-48
2022/02/18 07:55:43;;;;;;;22.77;4.20;;;9.40;99.90;;;;;;4993369;28;20034;-46
2022/02/18 07:58:09;;;;;;;26.08;5.47;;;9.40;99.90;;;;;;4994540;28;20026;-49
2022/02/18 08:00:36;;;;;;;25.80;5.93;;;9.40;99.90;;;;;;4995247;28;20034;-48
2022/02/18 08:03:02;;;;;;;16.23;4.72;;;9.40;99.90;;;;;;4994499;28;20054;-47
2022/02/18 08:05:28;;;;;;;14.32;4.35;;;9.40;99.90;;;;;;4994878;28;20026;-48
2022/02/18 08:07:56;;;;;;;15.30;4.55;;;9.40;99.90;;;;;;4994408;28;20065;-50
2022/02/18 08:10:22;;;;;;;22.15;4.53;;;9.40;99.90;;;;;;4994879;28;20494;-51
2022/02/18 08:12:47;;;;;;;20.92;4.45;;;9.40;99.90;;;;;;4994314;28;20081;-48
2022/02/18 08:15:13;;;;;;;13.95;3.97;;;9.50;99.90;;;;;;4994535;28;20438;-49
2022/02/18 08:17:39;;;;;;;18.88;4.85;;;9.50;99.90;;;;;;4994204;28;20169;-48
2022/02/18 08:20:06;;;;;;;20.92;4.65;;;9.60;99.90;;;;;;4994901;28;20522;-47
2022/02/18 08:22:32;;;;;;;17.75;5.43;;;9.60;99.90;;;;;;4994585;28;20023;-47
2022/02/18 08:24:57;;;;;;;22.65;4.63;;;9.60;99.90;;;;;;4994152;28;20042;-46
2022/02/18 08:27:23;;;;;;;16.17;4.70;;;9.60;99.90;;;;;;4994284;28;20038;-48
2022/02/18 08:29:49;;;;;;;27.95;5.57;;;9.70;99.90;;;;;;4994524;28;20402;-46
2022/02/18 08:32:14;;;;;;;15.77;3.63;;;9.70;99.90;;;;;;4992771;28;20034;-47
2022/02/18 08:34:40;;;;;;;16.15;3.20;;;9.70;99.90;;;;;;4997095;28;20032;-48
2022/02/18 08:37:05;;;;;;;10.25;3.13;;;9.70;99.90;;;;;;5010936;28;20038;-46
2022/02/18 08:39:31;;;;;;;20.48;3.88;;;9.90;99.90;;;;;;5000554;28;20050;-45
2022/02/18 08:41:56;;;;;;;17.73;4.10;;;9.80;99.90;;;;;;4992517;28;20030;-46
2022/02/18 08:44:22;;;;;;;17.00;3.60;;;9.80;99.90;;;;;;4992118;28;20034;-46
2022/02/18 08:46:47;;;;;;;16.95;3.83;;;9.80;99.90;;;;;;4992233;28;20032;-44
2022/02/18 08:49:13;;;;;;;14.45;2.80;;;9.80;99.90;;;;;;4995313;28;20017;-48
2022/02/18 08:51:39;;;;;;;20.23;3.65;;;9.80;99.90;;;;;;5011118;28;20022;-47
2022/02/18 08:54:05;;;;;;;14.88;3.78;;;9.90;99.90;;;;;;5001734;28;20061;-50
2022/02/18 08:56:30;;;;;;;13.73;4.70;;;9.90;99.90;;;;;;4992195;28;20042;-48
2022/02/18 08:58:57;;;;;;;15.60;3.78;;;9.80;99.90;;;;;;4992417;28;20033;-46
2022/02/18 09:01:25;;;;;;;13.73;2.92;;;9.80;99.90;;;;;;4991606;28;20049;-46
2022/02/18 09:03:50;;;;;;;16.95;3.70;;;9.90;99.90;;;;;;4992007;28;20058;-47
2022/02/18 09:06:16;;;;;;;17.05;2.92;;;9.80;99.90;;;;;;4992131;28;20080;-48
2022/02/18 09:08:41;;;;;;;17.40;4.20;;;9.80;99.90;;;;;;4992003;28;20033;-47
2022/02/18 09:11:07;;;;;;;18.58;3.03;;;9.80;99.90;;;;;;4991945;28;20375;-47
2022/02/18 09:13:32;;;;;;;8.32;3.35;;;9.90;99.90;;;;;;4992764;28;20435;-45
2022/02/18 09:15:58;;;;;;;16.48;2.80;;;9.90;99.90;;;;;;4994349;28;20035;-46
2022/02/18 09:18:23;;;;;;;13.57;3.00;;;9.90;99.90;;;;;;4994183;28;20034;-44
2022/02/18 09:20:49;;;;;;;24.67;3.35;;;9.90;99.90;;;;;;4994591;28;20030;-48
2022/02/18 09:23:15;;;;;;;11.48;3.95;;;9.90;99.90;;;;;;4993229;28;20034;-44
2022/02/18 09:25:41;;;;;;;9.98;2.85;;;9.90;99.90;;;;;;5001023;28;20043;-44
2022/02/18 09:28:08;;;;;;;13.30;2.70;;;9.90;99.90;;;;;;5002148;28;20038;-45
2022/02/18 09:30:43;;;;;;;10.00;2.42;;;10.00;99.90;;;;;;5003158;28;20022;-46
2022/02/18 09:33:12;;;;;;;13.07;3.10;;;10.10;99.90;;;;;;5004544;28;20026;-50
2022/02/18 09:35:39;;;;;;;8.77;2.42;;;10.10;99.90;;;;;;5003071;28;20031;-49
2022/02/18 09:38:06;;;;;;;12.40;2.10;;;10.20;99.90;;;;;;5004609;28;20083;-47
2022/02/18 09:40:32;;;;;;;9.63;2.60;;;10.30;99.90;;;;;;4985038;28;20030;-46
2022/02/18 09:42:59;;;;;;;7.97;2.40;;;10.30;99.90;;;;;;5000405;28;20022;-48
2022/02/18 09:45:25;;;;;;;10.30;2.40;;;10.40;99.90;;;;;;5002482;28;20094;-49
2022/02/18 09:47:52;;;;;;;14.27;2.85;;;10.40;99.90;;;;;;5001783;28;20037;-46
2022/02/18 09:50:18;;;;;;;9.52;2.33;;;10.40;99.90;;;;;;5003648;28;20023;-46
2022/02/18 09:52:44;;;;;;;15.10;2.40;;;10.50;99.90;;;;;;5003742;28;20037;-49
2022/02/18 09:55:10;;;;;;;11.05;2.65;;;10.60;99.90;;;;;;5004081;28;20061;-52
2022/02/18 09:57:37;;;;;;;8.20;2.85;;;10.80;99.90;;;;;;5002785;28;20026;-52
2022/02/18 10:00:07;;;;;;;7.88;2.42;;;10.70;99.90;;;;;;5003869;28;20033;-48
2022/02/18 10:02:36;;;;;;;8.02;1.85;;;10.80;99.90;;;;;;5004228;28;20029;-48
2022/02/18 10:05:01;;;;;;;11.07;2.50;;;10.80;99.90;;;;;;5001936;28;20038;-51
2022/02/18 10:07:28;;;;;;;9.65;2.80;;;10.90;99.90;;;;;;5004356;28;20031;-50
2022/02/18 10:09:54;;;;;;;12.00;2.10;;;11.00;99.90;;;;;;5004354;28;20054;-53
2022/02/18 10:12:38;;;;;;;11.32;3.13;;;11.20;99.90;;;;;;5006621;28;20034;-51
2022/02/18 10:15:09;;;;;;;8.57;2.97;;;11.30;99.90;;;;;;5007105;28;20026;-47
2022/02/18 10:17:43;;;;;;;8.32;2.95;;;11.30;99.90;;;;;;5007533;28;20030;-53
2022/02/18 10:20:21;;;;;;;3.72;2.00;;;11.50;99.90;;;;;;5008193;28;20498;-53
2022/02/18 10:23:05;;;;;;;10.15;2.10;;;11.50;99.90;;;;;;5007519;28;20635;-48
2022/02/18 10:25:36;;;;;;;9.32;3.10;;;11.50;99.90;;;;;;5006844;28;20027;-49
2022/02/18 10:28:10;;;;;;;12.95;2.75;;;11.60;99.90;;;;;;5007501;28;20018;-49
2022/02/18 10:30:37;;;;;;;13.88;2.55;;;11.80;99.90;;;;;;5007230;28;20090;-48
2022/02/18 10:33:20;;;;;;;9.15;2.70;;;11.90;99.90;;;;;;5006530;28;20031;-49
2022/02/18 10:35:46;;;;;;;6.00;1.60;;;12.10;99.90;;;;;;5006540;28;20042;-47
2022/02/18 10:38:13;;;;;;;7.18;2.35;;;12.30;99.90;;;;;;5006440;28;20034;-47
2022/02/18 10:40:49;;;;;;;12.07;2.08;;;12.40;99.90;;;;;;5007373;28;20030;-46
2022/02/18 10:43:21;;;;;;;6.32;1.77;;;12.50;99.90;;;;;;5002678;28;20083;-52
2022/02/18 10:45:59;;;;;;;7.22;1.85;;;12.50;99.90;;;;;;4996344;28;20413;-47
2022/02/18 10:48:30;;;;;;;6.60;1.85;;;12.60;99.90;;;;;;5007536;28;20037;-51
2022/02/18 10:51:14;;;;;;;6.40;2.25;;;12.60;99.90;;;;;;5002702;28;20045;-47
2022/02/18 10:53:44;;;;;;;9.55;1.95;;;12.50;99.90;;;;;;5003629;28;20082;-47
2022/02/18 10:56:12;;;;;;;6.25;1.92;;;12.60;99.90;;;;;;5004187;28;20041;-48
2022/02/18 10:58:38;;;;;;;4.60;1.63;;;12.50;99.90;;;;;;5003941;28;20494;-47
2022/02/18 11:01:14;;;;;;;8.32;3.03;;;12.60;99.90;;;;;;5008131;28;20029;-44
2022/02/18 11:03:43;;;;;;;5.15;1.92;;;12.60;99.90;;;;;;5003590;28;20022;-47
2022/02/18 11:06:19;;;;;;;10.00;2.08;;;12.70;99.90;;;;;;5017021;28;20116;-50
2022/02/18 11:08:57;;;;;;;8.30;2.40;;;12.60;99.90;;;;;;5012033;28;20058;-47
2022/02/18 11:11:31;;;;;;;8.98;2.67;;;12.60;99.90;;;;;;4998299;28;20129;-45
2022/02/18 11:13:59;;;;;;;4.90;2.38;;;12.60;99.90;;;;;;4999274;28;20437;-45
2022/02/18 11:16:27;;;;;;;8.70;2.88;;;12.60;99.90;;;;;;4998049;28;20035;-45
2022/02/18 11:18:54;;;;;;;12.75;2.53;;;12.60;99.90;;;;;;4997303;28;20049;-45
2022/02/18 11:21:19;;;;;;;7.22;1.95;;;12.60;99.90;;;;;;4999315;28;20037;-43
2022/02/18 11:23:45;;;;;;;9.27;2.45;;;12.50;99.90;;;;;;5017771;28;20030;-45
2022/02/18 11:26:17;;;;;;;13.35;3.08;;;12.50;99.90;;;;;;5009869;28;20501;-47
2022/02/18 11:28:43;;;;;;;5.57;2.17;;;12.50;99.90;;;;;;5000085;28;20089;-45
2022/02/18 11:31:28;;;;;;;7.30;2.17;;;12.50;99.90;;;;;;4998733;28;20080;-47
2022/02/18 11:34:26;;;;;;;10.73;2.53;;;12.40;99.90;;;;;;4997792;28;20101;-44
2022/02/18 11:37:01;;;;;;;9.50;3.47;;;12.50;99.90;;;;;;5013295;28;20387;-48
2022/02/18 11:39:26;;;;;;;8.43;4.20;;;12.50;99.90;;;;;;5010422;28;20066;-46
2022/02/18 11:42:25;;;;;;;9.02;2.50;;;12.40;99.90;;;;;;4999671;28;20022;-50
2022/02/18 11:44:51;;;;;;;10.73;2.40;;;12.50;99.90;;;;;;4977118;28;20030;-49
2022/02/18 11:47:20;;;;;;;11.35;2.72;;;12.40;99.90;;;;;;4977621;28;20041;-46
2022/02/18 11:49:47;;;;;;;8.68;2.20;;;12.40;99.90;;;;;;4995786;28;20037;-50
2022/02/18 11:52:14;;;;;;;7.85;1.90;;;12.40;99.90;;;;;;4989806;28;20037;-49
2022/02/18 11:54:40;;;;;;;4.55;1.40;;;12.50;99.90;;;;;;4977221;28;20034;-46
2022/02/18 11:57:08;;;;;;;2.90;1.20;;;12.50;99.90;;;;;;4993818;28;20113;-47
2022/02/18 11:59:43;;;;;;;4.82;1.13;;;12.60;99.90;;;;;;4994427;28;20445;-46
2022/02/18 12:02:09;;;;;;;3.00;1.00;;;12.80;99.90;;;;;;4994629;28;20487;-48
2022/02/18 12:04:36;;;;;;;1.08;0.50;;;12.90;99.90;;;;;;4993272;28;20105;-48
2022/02/18 12:07:17;;;;;;;1.02;0.50;;;13.10;99.90;;;;;;4993381;28;20041;-46
2022/02/18 12:09:48;;;;;;;1.10;0.55;;;13.30;99.90;;;;;;4993464;28;20027;-47
2022/02/18 12:12:21;;;;;;;2.05;0.70;;;13.30;99.90;;;;;;4992782;28;20026;-47
2022/02/18 12:14:53;;;;;;;0.63;0.50;;;13.40;99.90;;;;;;4992907;28;20022;-45
2022/02/18 12:17:19;;;;;;;0.57;0.57;;;13.50;99.90;;;;;;4993063;28;20085;-45
2022/02/18 12:19:45;;;;;;;0.75;0.50;;;13.50;99.90;;;;;;4992826;28;20026;-52
2022/02/18 12:22:11;;;;;;;0.50;0.45;;;13.60;99.90;;;;;;4992703;28;20026;-47
2022/02/18 12:24:43;;;;;;;0.40;0.40;;;13.60;99.90;;;;;;4992633;28;20049;-47
2022/02/18 12:27:23;;;;;;;0.60;0.60;;;13.70;99.90;;;;;;4993116;28;20106;-46
2022/02/18 12:29:51;;;;;;;0.40;0.40;;;13.70;99.90;;;;;;4993115;28;20296;-44
2022/02/18 12:32:17;;;;;;;1.02;0.90;;;13.70;99.90;;;;;;4993021;28;20088;-45
2022/02/18 12:34:44;;;;;;;1.40;0.52;;;13.70;99.90;;;;;;4992727;28;20026;-47
2022/02/18 12:37:15;;;;;;;0.47;0.47;;;13.70;99.90;;;;;;4993470;28;20284;-50
2022/02/18 12:39:54;;;;;;;0.85;0.80;;;13.70;99.90;;;;;;4992662;28;20026;-45
2022/02/18 12:42:23;;;;;;;0.70;0.50;;;13.60;99.90;;;;;;4992563;28;20041;-47
2022/02/18 12:44:57;;;;;;;0.43;0.30;;;13.60;99.90;;;;;;4992092;28;20402;-45